Kentwood, Louisiana
Current Conditions -  °F | °C
As of 6:53 AM on Sunday 23 Nov 2014 (Local Time) from KMCB Reporting Station
Light Rain Light Rain  
Wind Chill: 61°   Ceiling: 200
Heat Index: 61°   Visibility: 3mi
Dew Point: 60°   Wind: 5mph
Humidity: 97%   Direction: 110°ESE
Pressure: 29.7"   Gusts: NA
Location:  30.94°N, 90.51°W
Report Text: KMCB 231253Z AUTO 11004KT 3SM -RA BR OVC002 16/16 A2970 RMK AO2 RAE1158B20 SLP052 P0001 T01610156
Loading
Personal Weather Stations






























Interactive Weather Map New forecast layout! Learn more

10-Day Weather Forecast

Advertisements
Track Severe Weather on mobile